Marysville, California
Current Conditions -  °F | °C
As of 6:53 AM on Friday 19 Dec 2014 (Local Time) from KMYV Reporting Station
Overcast Overcast  
Wind Chill: 54°   Ceiling: 3000
Heat Index: 54°   Visibility: 10mi
Dew Point: 46°   Wind: 15mph
Humidity: 75%   Direction: 150°SSE
Pressure: 30.09"   Gusts: NA
Location:  39.15°N, 121.58°W
Report Text: KMYV 191453Z AUTO 15013KT 10SM OVC030 12/08 A3009 RMK AO2 SLP194 60001 T01220078 58014
Loading
Personal Weather Stations






























Interactive Weather Map New forecast layout! Learn more

10-Day Weather Forecast

Advertisements
Track Severe Weather on mobile